National Geographic Sea Lion — WUR9646 — position and weather

sailwx.info

Track history (hours):
 
Tides and Currents Weather Stations Pressure Air Temp Water Temp Dewpoint Dewpoint Depression Visibility Wind Speed Wind Dir Waves Ship Positions

National Geographic Sea Lion

Owner: Lindblad Expeditions LLC, SEATTLE, WA. More information available from US FCC via Universal Licensing System and Coast Guard Vessel Documentation Center.

Last reported at 2018-Oct-20 01:30 UTC. Time now 2018-Oct-20 01:50 UTC.
Position N 34°02' W 119°20'.

Length 45 m; draft 2.4 m.

Type: Passenger vessel. MMSI: 366396000.

Date/timePositionNaut miles runAvg speedWind from/ knotsBaromVisibWave heightAir tempDewpointWater temp
2018-Oct-20 01:30N 34°02' W 119°20'510.5
2018-Oct-20 01:03N 34°03' W 119°25'110.3
2018-Oct-20 01:00N 34°03' W 119°26'5 9.0
2018-Oct-20 00:30N 34°05' W 119°31'510.1
2018-Oct-20 00:01N 34°05' W 119°37'0 9.0
2018-Oct-20 00:00N 34°05' W 119°37'510.1
2018-Oct-19 23:30N 34°05' W 119°43'6 9.6
2018-Oct-19 22:52N 34°05' W 119°50'2 4.7
2018-Oct-19 22:31N 34°05' W 119°52'4 8.2
2018-Oct-19 22:03N 34°05' W 119°57'0 9.6
2018-Oct-19 22:00N 34°05' W 119°57'5 8.8
2018-Oct-19 21:25N 34°01' W 120°01'1 1.4
2018-Oct-19 20:35N 34°00' W 120°03'0 0.0
2018-Oct-19 20:26N 34°00' W 120°03'0 0.0
2018-Oct-19 19:05N 34°00' W 120°03'0 0.0
2018-Oct-19 18:53N 34°00' W 120°03'0 0.0
2018-Oct-19 18:05N 34°00' W 120°03'0 0.0
2018-Oct-19 17:44N 34°00' W 120°03'0 0.0
2018-Oct-19 16:23N 34°00' W 120°03'0 0.0
2018-Oct-19 15:56N 34°00' W 120°03'0 0.1
2018-Oct-19 15:23N 34°00' W 120°03'0 0.2
2018-Oct-19 14:17N 34°00' W 120°02'0 0.0
2018-Oct-19 13:11N 34°00' W 120°02'0 0.0
2018-Oct-19 11:59N 34°00' W 120°02'0 0.1
2018-Oct-19 10:59N 34°00' W 120°02'0 0.0
2018-Oct-19 10:29N 34°00' W 120°02'0 0.0
2018-Oct-19 09:53N 34°00' W 120°02'0 0.0
2018-Oct-19 09:14N 34°00' W 120°02'0 0.1
2018-Oct-19 08:38N 34°00' W 120°02'0 0.0
2018-Oct-19 08:23N 34°00' W 120°02'0 0.0
2018-Oct-19 07:53N 34°00' W 120°02'0 0.5
2018-Oct-19 07:30N 34°00' W 120°02'4 9.5
2018-Oct-19 07:02N 34°04' W 119°58'0 9.7
2018-Oct-19 06:59N 34°04' W 119°58'4 9.1
2018-Oct-19 06:30N 34°06' W 119°53'4 9.4
2018-Oct-19 06:03N 34°06' W 119°48'1 9.5
2018-Oct-19 06:00N 34°06' W 119°47'5 9.5
2018-Oct-19 05:30N 34°05' W 119°42'4 9.6
2018-Oct-19 05:03N 34°04' W 119°37'1 9.9
2018-Oct-19 05:00N 34°04' W 119°36'3 5.5
2018-Oct-19 04:30N 34°03' W 119°33'0 0.0
2018-Oct-19 03:56N 34°03' W 119°33'0 0.0
2018-Oct-19 03:29N 34°03' W 119°33'0 0.0
2018-Oct-19 03:02N 34°03' W 119°33'0 0.4
2018-Oct-19 02:59N 34°03' W 119°33'0 0.0
2018-Oct-19 02:20N 34°03' W 119°33'0 0.1
2018-Oct-19 02:02N 34°03' W 119°33'0 0.5
2018-Oct-19 01:59N 34°03' W 119°33'0 0.0
2018-Oct-19 01:26N 34°03' W 119°33'0 0.0
2018-Oct-19 01:02N 34°03' W 119°33'0 0.5
2018-Oct-19 00:59N 34°03' W 119°33'0 0.0
2018-Oct-19 00:29N 34°03' W 119°33'0 0.0
2018-Oct-18 23:59N 34°03' W 119°33'0 0.0
2018-Oct-18 23:26N 34°03' W 119°33'0 0.0
2018-Oct-18 22:59N 34°03' W 119°33'0 0.0
2018-Oct-18 22:26N 34°03' W 119°33'0 0.0
2018-Oct-18 22:02N 34°03' W 119°33'0 0.1
2018-Oct-18 21:59N 34°03' W 119°33'0 0.0
2018-Oct-18 21:29N 34°03' W 119°33'0 0.0
2018-Oct-18 21:03N 34°03' W 119°33'0 1.1
2018-Oct-18 21:00N 34°03' W 119°33'5 9.0
2018-Oct-18 20:29N 34°04' W 119°28'4 9.9
2018-Oct-18 20:03N 34°02' W 119°23'0 9.6
2018-Oct-18 20:00N 34°02' W 119°23'1 2.3
2018-Oct-18 19:28N 34°01' W 119°22'0 0.0
2018-Oct-18 19:01N 34°01' W 119°22'0 0.1
2018-Oct-18 18:55N 34°01' W 119°22'0 0.0
2018-Oct-18 18:25N 34°01' W 119°22'0 0.0
2018-Oct-18 18:01N 34°01' W 119°22'0 0.1
2018-Oct-18 17:43N 34°01' W 119°22'0 0.0
2018-Oct-18 17:25N 34°01' W 119°22'0 0.0
2018-Oct-18 16:46N 34°01' W 119°22'0 0.0
2018-Oct-18 16:25N 34°01' W 119°22'0 0.0
2018-Oct-18 16:01N 34°01' W 119°22'0 0.1
2018-Oct-18 15:55N 34°01' W 119°22'0 0.0
2018-Oct-18 15:22N 34°01' W 119°22'0 0.0
2018-Oct-18 15:01N 34°01' W 119°22'0 0.0
2018-Oct-18 14:55N 34°01' W 119°22'2 2.0
2018-Oct-18 14:04N 34°02' W 119°23'0 8.0
2018-Oct-18 14:01N 34°02' W 119°23'4 7.3
2018-Oct-18 13:30N 34°02' W 119°18'3 5.8
2018-Oct-18 13:03N 33°59' W 119°18'0 7.0
2018-Oct-18 13:00N 33°59' W 119°19'3 6.9
2018-Oct-18 12:31N 33°57' W 119°22'3 6.8
2018-Oct-18 12:04N 33°55' W 119°25'0 7.0
2018-Oct-18 12:01N 33°54' W 119°25'4 7.0
2018-Oct-18 11:30N 33°52' W 119°28'3 7.1
2018-Oct-18 11:04N 33°50' W 119°31'0 6.8
2018-Oct-18 11:01N 33°50' W 119°32'3 6.8
2018-Oct-18 10:31N 33°52' W 119°28'4 8.5
2018-Oct-18 10:04N 33°54' W 119°24'0 8.3
2018-Oct-18 10:01N 33°54' W 119°24'4 8.7
2018-Oct-18 09:30N 33°56' W 119°19'4 8.4
2018-Oct-18 09:04N 33°58' W 119°16'0 7.8
2018-Oct-18 09:00N 33°59' W 119°15'4 8.2
2018-Oct-18 08:31N 34°01' W 119°11'3 6.6
2018-Oct-18 08:04N 34°02' W 119°08'0 7.8
2018-Oct-18 08:01N 34°02' W 119°07'4 8.0
2018-Oct-18 07:31N 33°60' W 119°03'3 7.6
2018-Oct-18 07:03N 33°58' W 118°59'0 7.4
2018-Oct-18 07:01N 33°58' W 118°59'4 7.5
2018-Oct-18 06:30N 33°56' W 118°55'3 7.4
2018-Oct-18 06:04N 33°54' W 118°52'0 7.1
2018-Oct-18 06:01N 33°54' W 118°51'4 7.2
2018-Oct-18 05:31N 33°52' W 118°48'3 7.6
2018-Oct-18 05:03N 33°50' W 118°44'0 8.1
2018-Oct-18 05:00N 33°50' W 118°44'4 7.6
2018-Oct-18 04:30N 33°48' W 118°40'3 7.7
2018-Oct-18 04:04N 33°46' W 118°36'0 7.1
2018-Oct-18 04:00N 33°46' W 118°36'4 7.5
2018-Oct-18 03:30N 33°44' W 118°32'3 7.6
2018-Oct-18 03:03N 33°43' W 118°28'0 7.5
2018-Oct-18 03:01N 33°42' W 118°28'4 8.1
2018-Oct-18 02:31N 33°41' W 118°24'4 8.0
2018-Oct-18 02:03N 33°40' W 118°20'0 8.6
2018-Oct-18 02:01N 33°40' W 118°19'4 7.3
2018-Oct-18 01:31N 33°42' W 118°15'2 4.3
2018-Oct-18 01:04N 33°43' W 118°16'0 0.0
2018-Oct-18 00:59N 33°43' W 118°16'0 0.0
2018-Oct-18 00:29N 33°43' W 118°16'0 0.0
2018-Oct-18 00:02N 33°43' W 118°16'0 0.1
2018-Oct-17 23:59N 33°43' W 118°16'0 0.0
2018-Oct-17 23:29N 33°43' W 118°16'0 0.0
2018-Oct-17 23:02N 33°43' W 118°16'0 0.0
2018-Oct-17 22:59N 33°43' W 118°16'0 0.0
2018-Oct-17 22:29N 33°43' W 118°16'0 0.0
2018-Oct-17 22:02N 33°43' W 118°16'0 0.0
2018-Oct-17 21:59N 33°43' W 118°16'0 0.0
2018-Oct-17 21:29N 33°43' W 118°16'0 0.0
2018-Oct-17 21:02N 33°43' W 118°16'0 0.1
2018-Oct-17 20:59N 33°43' W 118°16'0 0.0
2018-Oct-17 20:29N 33°43' W 118°16'0 0.0
2018-Oct-17 20:02N 33°43' W 118°16'0 0.1
2018-Oct-17 19:56N 33°43' W 118°16'0 0.0
2018-Oct-17 19:29N 33°43' W 118°16'0 0.0
2018-Oct-17 18:59N 33°43' W 118°16'0 0.0
2018-Oct-17 18:29N 33°43' W 118°16'0 0.0
2018-Oct-17 18:02N 33°43' W 118°16'0 0.0
2018-Oct-17 17:59N 33°43' W 118°16'0 0.0
2018-Oct-17 17:29N 33°43' W 118°16'0 0.0
2018-Oct-17 17:02N 33°43' W 118°16'0 0.1
2018-Oct-17 16:59N 33°43' W 118°16'0 0.0
2018-Oct-17 16:29N 33°43' W 118°16'0 0.0
2018-Oct-17 16:02N 33°43' W 118°16'0 0.0
2018-Oct-17 15:59N 33°43' W 118°16'0 0.0
2018-Oct-17 15:29N 33°43' W 118°16'0 0.0
2018-Oct-17 15:02N 33°43' W 118°16'0 0.0
2018-Oct-17 14:56N 33°43' W 118°16'0 0.0
2018-Oct-17 14:29N 33°43' W 118°16'0 0.0
2018-Oct-17 13:29N 33°43' W 118°16'0 0.0
2018-Oct-17 13:02N 33°43' W 118°16'0 0.0
2018-Oct-17 12:59N 33°43' W 118°16'0 0.0
2018-Oct-17 12:29N 33°43' W 118°16'0 0.0
2018-Oct-17 12:02N 33°43' W 118°16'0 0.1
2018-Oct-17 11:59N 33°43' W 118°16'0 0.0
2018-Oct-17 11:29N 33°43' W 118°16'0 0.0
2018-Oct-17 11:02N 33°43' W 118°16'0 0.0
2018-Oct-17 10:59N 33°43' W 118°16'0 0.0
2018-Oct-17 10:29N 33°43' W 118°16'0 0.0
2018-Oct-17 10:02N 33°43' W 118°16'0 0.1
2018-Oct-17 09:59N 33°43' W 118°16'0 0.0
2018-Oct-17 09:29N 33°43' W 118°16'0 0.0
2018-Oct-17 09:02N 33°43' W 118°16'0 0.1
2018-Oct-17 08:59N 33°43' W 118°16'0 0.0
2018-Oct-17 08:29N 33°43' W 118°16'0 0.0
2018-Oct-17 08:02N 33°43' W 118°16'0 0.0
2018-Oct-17 07:59N 33°43' W 118°16'0 0.0
2018-Oct-17 07:29N 33°43' W 118°16'0 0.0
2018-Oct-17 07:02N 33°43' W 118°16'0 0.0
2018-Oct-17 06:59N 33°43' W 118°16'0 0.0
2018-Oct-17 06:29N 33°43' W 118°16'0 0.0
2018-Oct-17 06:02N 33°43' W 118°16'0 0.1
2018-Oct-17 05:59N 33°43' W 118°16'0 0.0
2018-Oct-17 05:29N 33°43' W 118°16'0 0.0
2018-Oct-17 05:02N 33°43' W 118°16'0 0.0
2018-Oct-17 04:59N 33°43' W 118°16'0 0.0
2018-Oct-17 04:29N 33°43' W 118°16'0 0.0
2018-Oct-17 04:02N 33°43' W 118°16'0 0.0
2018-Oct-17 03:59N 33°43' W 118°16'0 0.0
2018-Oct-17 03:29N 33°43' W 118°16'0 0.0
2018-Oct-17 03:02N 33°43' W 118°16'0 0.0
2018-Oct-17 02:59N 33°43' W 118°16'0 0.0
2018-Oct-17 02:29N 33°43' W 118°16'0 0.0
2018-Oct-17 02:02N 33°43' W 118°16'0 0.1
2018-Oct-17 01:59N 33°43' W 118°16'0 0.0
2018-Oct-17 01:29N 33°43' W 118°16'0 0.0
2018-Oct-17 01:02N 33°43' W 118°16'0 0.1
2018-Oct-17 00:59N 33°43' W 118°16'0 0.0
2018-Oct-17 00:29N 33°43' W 118°16'0 0.0
2018-Oct-17 00:02N 33°43' W 118°16'0 0.0
2018-Oct-16 23:59N 33°43' W 118°16'0 0.0
2018-Oct-16 23:29N 33°43' W 118°16'0 0.0
2018-Oct-16 23:02N 33°43' W 118°16'0 0.1
2018-Oct-16 22:59N 33°43' W 118°16'0 0.0
2018-Oct-16 22:29N 33°43' W 118°16'0 0.0
2018-Oct-16 21:59N 33°43' W 118°16'0 0.0
2018-Oct-16 21:29N 33°43' W 118°16'0 0.0
2018-Oct-16 21:02N 33°43' W 118°16'0 0.0
2018-Oct-16 20:56N 33°43' W 118°16'0 0.0
2018-Oct-16 20:29N 33°43' W 118°16'0 0.0
2018-Oct-16 20:02N 33°43' W 118°16'0 0.0
2018-Oct-16 19:59N 33°43' W 118°16'0 0.0
2018-Oct-16 19:29N 33°43' W 118°16'0 0.0
2018-Oct-16 19:02N 33°43' W 118°16'0 0.0
2018-Oct-16 18:59N 33°43' W 118°16'0 0.0
2018-Oct-16 18:26N 33°43' W 118°16'0 0.0
2018-Oct-16 17:59N 33°43' W 118°16'0 0.0
2018-Oct-16 17:29N 33°43' W 118°16'0 0.0
2018-Oct-16 17:02N 33°43' W 118°16'0 0.1
2018-Oct-16 16:59N 33°43' W 118°16'0 0.0
2018-Oct-16 16:30N 33°43' W 118°16'0 0.1
2018-Oct-16 16:03N 33°43' W 118°17'0 0.2
2018-Oct-16 16:00N 33°43' W 118°17'3 5.7
2018-Oct-16 15:30N 33°41' W 118°14'4 8.7
2018-Oct-16 15:03N 33°37' W 118°15'0 9.5
2018-Oct-16 15:00N 33°37' W 118°15'4 8.5
2018-Oct-16 14:31N 33°36' W 118°20'4 8.7
2018-Oct-16 14:00N 33°37' W 118°25'4 8.4
2018-Oct-16 13:30N 33°39' W 118°29'4 8.9
2018-Oct-16 13:03N 33°41' W 118°33'0 9.2
2018-Oct-16 13:00N 33°42' W 118°34'4 8.8
2018-Oct-16 12:30N 33°44' W 118°38'4 8.7
2018-Oct-16 12:03N 33°46' W 118°42'0 9.1
2018-Oct-16 12:00N 33°46' W 118°43'5 9.2
2018-Oct-16 11:30N 33°48' W 118°48'4 9.1
2018-Oct-16 11:03N 33°50' W 118°52'0 9.1
2018-Oct-16 11:00N 33°51' W 118°52'5 9.0
2018-Oct-16 10:30N 33°53' W 118°57'4 9.1
2018-Oct-16 10:03N 33°55' W 119°01'0 8.6
2018-Oct-16 10:00N 33°55' W 119°02'5 9.2
2018-Oct-16 09:30N 33°57' W 119°07'4 9.4
2018-Oct-16 09:03N 33°59' W 119°11'0 9.8
2018-Oct-16 09:00N 33°60' W 119°12'5 9.3
2018-Oct-16 08:30N 34°02' W 119°17'4 8.8
2018-Oct-16 08:03N 34°03' W 119°21'1 8.5
2018-Oct-16 07:59N 34°03' W 119°22'4 9.1
2018-Oct-16 07:30N 34°04' W 119°27'4 9.3
2018-Oct-16 07:03N 34°05' W 119°32'0 9.2
2018-Oct-16 07:00N 34°05' W 119°32'5 9.1
2018-Oct-16 06:30N 34°07' W 119°38'4 9.1
2018-Oct-16 06:03N 34°08' W 119°42'0 8.1
2018-Oct-16 06:00N 34°08' W 119°43'5 9.5
2018-Oct-16 05:29N 34°09' W 119°49'4 9.1
2018-Oct-16 05:03N 34°10' W 119°53'1 9.2
2018-Oct-16 05:00N 34°10' W 119°54'5 9.3
2018-Oct-16 04:30N 34°11' W 119°59'4 9.4
2018-Oct-16 04:03N 34°12' W 120°04'0 8.4
2018-Oct-16 04:00N 34°12' W 120°05'4 9.0
2018-Oct-16 03:30N 34°14' W 120°10'5 9.2
2018-Oct-16 02:57N 34°15' W 120°16'5 9.8
2018-Oct-16 02:27N 34°16' W 120°21'4 9.8
2018-Oct-16 02:03N 34°17' W 120°26'1 9.4
2018-Oct-16 01:58N 34°17' W 120°27'5 9.3
2018-Oct-16 01:27N 34°19' W 120°33'4 9.6
2018-Oct-16 01:03N 34°20' W 120°37'1 9.2
2018-Oct-16 01:00N 34°20' W 120°38'5 9.6
2018-Oct-16 00:29N 34°21' W 120°43'4 9.6
2018-Oct-16 00:03N 34°22' W 120°48'0 9.2
2018-Oct-16 00:00N 34°22' W 120°49'6 9.8
2018-Oct-15 23:26N 34°24' W 120°55'4 9.7
2018-Oct-15 23:03N 34°25' W 120°60'1 9.8
2018-Oct-15 22:58N 34°25' W 121°01'4 9.4
2018-Oct-15 22:29N 34°26' W 121°06'4 9.2
2018-Oct-15 22:03N 34°29' W 121°09'0 9.6
2018-Oct-15 22:00N 34°30' W 121°09'5 9.8
2018-Oct-15 21:30N 34°34' W 121°12'510.2
2018-Oct-15 21:03N 34°38' W 121°14'110.5
2018-Oct-15 21:00N 34°39' W 121°14'510.2
2018-Oct-15 20:30N 34°43' W 121°17'4 9.9
2018-Oct-15 20:03N 34°47' W 121°19'1 9.9
2018-Oct-15 19:59N 34°48' W 121°20'5 9.8
2018-Oct-15 19:30N 34°52' W 121°22'4 9.8
2018-Oct-15 19:03N 34°56' W 121°25'0 9.5
2018-Oct-15 19:00N 34°56' W 121°25'5 9.6
2018-Oct-15 18:30N 35°00' W 121°29'4 9.4
2018-Oct-15 18:03N 35°04' W 121°32'0 9.4
2018-Oct-15 18:00N 35°04' W 121°32'5 9.5
2018-Oct-15 17:30N 35°08' W 121°36'4 9.9
2018-Oct-15 17:03N 35°12' W 121°39'1 9.6
2018-Oct-15 17:00N 35°12' W 121°39'510.1
2018-Oct-15 16:30N 35°16' W 121°42'4 9.8
2018-Oct-15 16:03N 35°20' W 121°45'0 9.8
2018-Oct-15 16:00N 35°20' W 121°46'5 9.6
2018-Oct-15 15:30N 35°24' W 121°49'5 9.9
2018-Oct-15 15:03N 35°28' W 121°51'0 9.7
2018-Oct-15 15:00N 35°29' W 121°52'108 9.8
2018-Oct-15 04:00N 36°58' W 123°05'1110.5
2018-Oct-15 02:55N 37°08' W 123°13'910.6
2018-Oct-15 02:03N 37°15' W 123°20'110.5
2018-Oct-15 01:59N 37°16' W 123°20'510.2
2018-Oct-15 01:30N 37°20' W 123°24'4 9.8
2018-Oct-15 01:03N 37°24' W 123°27'0 9.7
2018-Oct-15 01:00N 37°24' W 123°27'510.0
2018-Oct-15 00:30N 37°28' W 123°31'510.2
2018-Oct-15 00:03N 37°32' W 123°34'0 9.7
2018-Oct-15 00:00N 37°32' W 123°34'610.2
2018-Oct-14 23:27N 37°37' W 123°38'410.0
2018-Oct-14 23:03N 37°40' W 123°41'110.4
2018-Oct-14 23:00N 37°41' W 123°41'510.3
2018-Oct-14 22:30N 37°45' W 123°45'4 9.9
2018-Oct-14 22:03N 37°49' W 123°47'1 9.8
2018-Oct-14 21:58N 37°50' W 123°48'4 9.7
2018-Oct-14 21:30N 37°54' W 123°50'4 9.6
2018-Oct-14 21:03N 37°58' W 123°51'0 9.9
2018-Oct-14 21:00N 37°59' W 123°52'5 9.8
2018-Oct-14 20:30N 38°03' W 123°54'4 9.8
2018-Oct-14 20:03N 38°07' W 123°56'0 9.9
2018-Oct-14 20:01N 38°08' W 123°56'6 9.8
2018-Oct-14 19:26N 38°13' W 123°59'4 9.4
2018-Oct-14 19:03N 38°16' W 124°00'0 9.6
2018-Oct-14 19:00N 38°17' W 124°00'5 9.5
2018-Oct-14 18:30N 38°21' W 124°03'4 9.7
2018-Oct-14 18:03N 38°25' W 124°05'0 9.4
2018-Oct-14 18:00N 38°26' W 124°05'5 9.5
2018-Oct-14 17:26N 38°31' W 124°08'4 9.9
2018-Oct-14 17:03N 38°34' W 124°09'0 9.8
2018-Oct-14 17:00N 38°35' W 124°09'5 9.9
2018-Oct-14 16:31N 38°39' W 124°11'12 9.7
2018-Oct-14 15:14N 38°51' W 124°16'13 9.9
2018-Oct-14 13:55N 39°03' W 124°22'287 9.8
2018-Oct-13 08:39N 43°51' W 124°33'5610.2
2018-Oct-13 03:10N 44°46' W 124°25'210.7
2018-Oct-13 03:00N 44°48' W 124°25'2411.9
2018-Oct-13 00:58N 45°12' W 124°19'2 4.3
2018-Oct-13 00:30N 45°14' W 124°19'510.6
2018-Oct-13 00:03N 45°19' W 124°19'110.5
2018-Oct-13 00:00N 45°19' W 124°19'5 9.2
2018-Oct-12 23:30N 45°24' W 124°19'510.5
2018-Oct-12 23:03N 45°29' W 124°17'010.6
2018-Oct-12 23:00N 45°29' W 124°17'510.7
2018-Oct-12 22:31N 45°34' W 124°16'510.6
2018-Oct-12 22:03N 45°39' W 124°16'010.6
2018-Oct-12 22:00N 45°40' W 124°16'510.5
2018-Oct-12 21:30N 45°45' W 124°15'510.7
2018-Oct-12 21:03N 45°50' W 124°14'218.1
2018-Oct-12 20:58N 45°51' W 124°13'4 8.9
2018-Oct-12 20:30N 45°55' W 124°13'510.4
2018-Oct-12 20:03N 45°60' W 124°12'410.3
2018-Oct-12 19:39N 46°04' W 124°11'531.6
2018-Oct-12 19:31N 46°09' W 124°10'1 3.3
2018-Oct-12 19:03N 46°10' W 124°10'110.7
2018-Oct-12 19:00N 46°11' W 124°10'510.4
2018-Oct-12 18:30N 46°15' W 124°06'8 9.6
2018-Oct-12 17:41N 46°12' W 123°55'211.5
2018-Oct-12 17:30N 46°11' W 123°52'1 3.0
2018-Oct-12 17:02N 46°12' W 123°50'0 0.0
2018-Oct-12 16:59N 46°12' W 123°50'0 0.0
2018-Oct-12 16:29N 46°12' W 123°50'0 0.0
2018-Oct-12 16:02N 46°12' W 123°50'0 0.0
2018-Oct-12 15:59N 46°12' W 123°50'0 0.0
2018-Oct-12 15:29N 46°12' W 123°50'0 0.0
2018-Oct-12 15:00N 46°12' W 123°50'2 2.0
2018-Oct-12 14:01N 46°12' W 123°48'0 0.1
2018-Oct-12 13:58N 46°12' W 123°48'0 0.1
2018-Oct-12 13:28N 46°12' W 123°48'0 0.0
2018-Oct-12 12:58N 46°12' W 123°48'0 0.0
2018-Oct-12 12:28N 46°12' W 123°48'0 0.0
2018-Oct-12 12:01N 46°12' W 123°48'0 0.0
2018-Oct-12 11:58N 46°12' W 123°48'0 0.0
2018-Oct-12 11:28N 46°12' W 123°48'0 0.1
2018-Oct-12 11:02N 46°12' W 123°48'0 0.0
2018-Oct-12 10:43N 46°12' W 123°48'0 0.0
2018-Oct-12 10:28N 46°12' W 123°48'0 0.0
2018-Oct-12 10:01N 46°12' W 123°48'0 0.0
2018-Oct-12 09:58N 46°12' W 123°48'0 0.0
2018-Oct-12 09:28N 46°12' W 123°48'0 0.1
2018-Oct-12 08:46N 46°12' W 123°48'0 0.0
2018-Oct-12 08:28N 46°12' W 123°48'0 0.0
2018-Oct-12 08:01N 46°12' W 123°48'0 0.1
2018-Oct-12 07:58N 46°12' W 123°48'0 0.0
2018-Oct-12 07:28N 46°12' W 123°48'0 0.9
2018-Oct-12 07:04N 46°12' W 123°48'3 9.8
2018-Oct-12 06:44N 46°14' W 123°43'311.6
2018-Oct-12 06:30N 46°15' W 123°40'512.3
2018-Oct-12 06:04N 46°16' W 123°32'111.7
2018-Oct-12 06:01N 46°16' W 123°31'510.2
2018-Oct-12 05:31N 46°13' W 123°25'511.2
2018-Oct-12 05:03N 46°09' W 123°21'112.6
2018-Oct-12 05:00N 46°09' W 123°20'612.5
2018-Oct-12 04:31N 46°11' W 123°12'511.2
2018-Oct-12 04:04N 46°10' W 123°05'112.5
2018-Oct-12 04:00N 46°10' W 123°04'611.9
2018-Oct-12 03:30N 46°06' W 122°57'510.5
2018-Oct-12 03:03N 46°02' W 122°53'110.7
2018-Oct-12 03:00N 46°02' W 122°53'510.4
2018-Oct-12 02:30N 45°57' W 122°49'4 9.7
2018-Oct-12 02:03N 45°53' W 122°48'0 9.4
2018-Oct-12 02:01N 45°53' W 122°48'5 9.3
2018-Oct-12 01:30N 45°48' W 122°47'4 9.5
2018-Oct-12 01:03N 45°44' W 122°46'010.0
2018-Oct-12 01:00N 45°43' W 122°46'5 9.3
2018-Oct-12 00:30N 45°39' W 122°46'3 6.7
2018-Oct-12 00:04N 45°36' W 122°47'0 7.2
2018-Oct-12 00:00N 45°35' W 122°46'3 5.1
2018-Oct-11 23:31N 45°34' W 122°43'0 0.0
2018-Oct-11 23:02N 45°34' W 122°43'0 0.0
2018-Oct-11 22:59N 45°34' W 122°43'0 0.0
2018-Oct-11 22:29N 45°34' W 122°43'0 0.0
2018-Oct-11 22:02N 45°34' W 122°43'0 0.0
2018-Oct-11 21:56N 45°34' W 122°43'0 0.0
2018-Oct-11 21:29N 45°34' W 122°43'0 0.0
2018-Oct-11 21:02N 45°34' W 122°43'0 0.0
2018-Oct-11 20:59N 45°34' W 122°43'0 0.0
2018-Oct-11 20:29N 45°34' W 122°43'0 0.0
2018-Oct-11 20:02N 45°34' W 122°43'0 0.0
2018-Oct-11 19:59N 45°34' W 122°43'0 0.0
2018-Oct-11 19:29N 45°34' W 122°43'0 0.0
2018-Oct-11 19:02N 45°34' W 122°43'0 0.0
2018-Oct-11 18:56N 45°34' W 122°43'0 0.0
2018-Oct-11 18:29N 45°34' W 122°43'0 0.0
2018-Oct-11 17:59N 45°34' W 122°43'0 0.0
2018-Oct-11 17:26N 45°34' W 122°43'0 0.0
2018-Oct-11 16:32N 45°34' W 122°43'0 0.0
2018-Oct-11 16:29N 45°34' W 122°43'0 0.0
2018-Oct-11 16:02N 45°34' W 122°43'0 0.0
2018-Oct-11 15:56N 45°34' W 122°43'0 0.0
2018-Oct-11 15:29N 45°34' W 122°43'0 0.0
2018-Oct-11 14:59N 45°34' W 122°43'0 0.0
2018-Oct-11 14:26N 45°34' W 122°43'0 0.0
2018-Oct-11 13:59N 45°34' W 122°43'0 0.0
2018-Oct-11 13:29N 45°34' W 122°43'0 0.0
2018-Oct-11 12:59N 45°34' W 122°43'0 0.0
2018-Oct-11 12:08N 45°34' W 122°43'0 0.0
2018-Oct-11 12:02N 45°34' W 122°43'0 0.0
2018-Oct-11 11:59N 45°34' W 122°43'0 0.0
2018-Oct-11 11:29N 45°34' W 122°43'0 0.0
2018-Oct-11 11:02N 45°34' W 122°43'0 0.0
2018-Oct-11 10:59N 45°34' W 122°43'0 0.0
2018-Oct-11 10:29N 45°34' W 122°43'0 0.0
2018-Oct-11 10:02N 45°34' W 122°43'0 0.0
2018-Oct-11 09:59N 45°34' W 122°43'0 0.0
2018-Oct-11 09:29N 45°34' W 122°43'0 0.0
2018-Oct-11 08:59N 45°34' W 122°43'0 0.0
2018-Oct-11 08:29N 45°34' W 122°43'0 0.0
2018-Oct-11 08:02N 45°34' W 122°43'0 0.0
2018-Oct-11 07:59N 45°34' W 122°43'0 0.0
2018-Oct-11 07:27N 45°34' W 122°43'0 0.0
2018-Oct-11 06:59N 45°34' W 122°43'0 0.0
2018-Oct-11 06:29N 45°34' W 122°43'0 0.0
2018-Oct-11 05:59N 45°34' W 122°43'0 0.0
2018-Oct-11 05:08N 45°34' W 122°43'0 0.0
2018-Oct-11 04:59N 45°34' W 122°43'0 0.0
2018-Oct-11 04:14N 45°34' W 122°43'0 0.0
2018-Oct-11 04:03N 45°34' W 122°43'0 0.0
2018-Oct-11 03:56N 45°34' W 122°43'0 0.0
2018-Oct-11 03:29N 45°34' W 122°43'0 0.0
2018-Oct-11 03:02N 45°34' W 122°43'0 0.0
2018-Oct-11 02:59N 45°34' W 122°43'0 0.0
2018-Oct-11 02:14N 45°34' W 122°43'0 0.0
2018-Oct-11 02:02N 45°34' W 122°43'0 0.0
2018-Oct-11 01:59N 45°34' W 122°43'0 0.0
2018-Oct-11 01:29N 45°34' W 122°43'0 0.0
2018-Oct-11 01:02N 45°34' W 122°43'0 0.0
2018-Oct-11 00:59N 45°34' W 122°43'0 0.0
2018-Oct-11 00:29N 45°34' W 122°43'0 0.0
2018-Oct-11 00:02N 45°34' W 122°43'0 0.0
2018-Oct-10 23:59N 45°34' W 122°43'0 0.0
2018-Oct-10 23:26N 45°34' W 122°43'0 0.0
2018-Oct-10 23:02N 45°34' W 122°43'0 0.0
2018-Oct-10 22:56N 45°34' W 122°43'0 0.0
2018-Oct-10 22:29N 45°34' W 122°43'0 0.0
2018-Oct-10 21:56N 45°34' W 122°43'0 0.0
2018-Oct-10 21:26N 45°34' W 122°43'0 0.0
2018-Oct-10 20:53N 45°34' W 122°43'0 0.0
2018-Oct-10 20:26N 45°34' W 122°43'0 0.0
2018-Oct-10 20:01N 45°34' W 122°43'0 0.0
2018-Oct-10 19:59N 45°34' W 122°43'0 0.0
2018-Oct-10 19:26N 45°34' W 122°43'0 0.0
2018-Oct-10 19:02N 45°34' W 122°43'0 0.0
2018-Oct-10 18:58N 45°34' W 122°43'0 0.0
2018-Oct-10 18:29N 45°34' W 122°43'0 0.0
2018-Oct-10 18:02N 45°34' W 122°43'0 0.0
2018-Oct-10 17:59N 45°34' W 122°43'0 0.0
2018-Oct-10 17:25N 45°34' W 122°43'0 0.0
2018-Oct-10 17:02N 45°34' W 122°43'0 0.0
2018-Oct-10 16:37N 45°34' W 122°43'0 0.0
2018-Oct-10 16:28N 45°34' W 122°43'0 0.0
2018-Oct-10 15:55N 45°34' W 122°43'0 0.0
2018-Oct-10 15:28N 45°34' W 122°43'0 0.0
2018-Oct-10 15:01N 45°34' W 122°43'0 0.0
2018-Oct-10 14:59N 45°34' W 122°43'0 0.0
2018-Oct-10 14:01N 45°34' W 122°43'0 0.0
2018-Oct-10 13:58N 45°34' W 122°43'0 0.0
2018-Oct-10 13:28N 45°34' W 122°43'0 0.0
2018-Oct-10 12:59N 45°34' W 122°43'0 0.0
2018-Oct-10 12:25N 45°34' W 122°43'0 0.0
2018-Oct-10 12:02N 45°34' W 122°43'0 0.0
2018-Oct-10 11:58N 45°34' W 122°43'0 0.0
2018-Oct-10 11:28N 45°34' W 122°43'0 0.0
2018-Oct-10 11:01N 45°34' W 122°43'0 0.0
2018-Oct-10 10:58N 45°34' W 122°43'0 0.0
2018-Oct-10 10:28N 45°34' W 122°43'0 0.0
2018-Oct-10 10:01N 45°34' W 122°43'0 0.0
2018-Oct-10 09:58N 45°34' W 122°43'0 0.0
2018-Oct-10 09:28N 45°34' W 122°43'0 0.0
2018-Oct-10 09:01N 45°34' W 122°43'0 0.0
2018-Oct-10 08:58N 45°34' W 122°43'0 0.0
2018-Oct-10 08:28N 45°34' W 122°43'0 0.0
2018-Oct-10 08:01N 45°34' W 122°43'0 0.0
2018-Oct-10 07:58N 45°34' W 122°43'0 0.0
2018-Oct-10 07:28N 45°34' W 122°43'0 0.0
2018-Oct-10 06:58N 45°34' W 122°43'0 0.0
2018-Oct-10 06:28N 45°34' W 122°43'0 0.0
2018-Oct-10 06:01N 45°34' W 122°43'0 0.0
2018-Oct-10 05:58N 45°34' W 122°43'0 0.0
2018-Oct-10 05:28N 45°34' W 122°43'0 0.0
2018-Oct-10 05:01N 45°34' W 122°43'0 0.0
2018-Oct-10 04:58N 45°34' W 122°43'0 0.0
2018-Oct-10 04:28N 45°34' W 122°43'0 0.0
2018-Oct-10 04:01N 45°34' W 122°43'0 0.0
2018-Oct-10 03:59N 45°34' W 122°43'0 0.0
2018-Oct-10 03:22N 45°34' W 122°43'0 0.0
2018-Oct-10 03:01N 45°34' W 122°43'0 0.0
2018-Oct-10 02:58N 45°34' W 122°43'0 0.0
2018-Oct-10 02:28N 45°34' W 122°43'0 0.0
2018-Oct-10 01:58N 45°34' W 122°43'  
Track history (hours):
 
Tides and Currents Weather Stations Pressure Air Temp Water Temp Dewpoint Dewpoint Depression Visibility Wind Speed Wind Dir Waves Ship Positions

National Geographic Sea Lion

Owner: Lindblad Expeditions LLC, SEATTLE, WA. More information available from US FCC via Universal Licensing System and Coast Guard Vessel Documentation Center.

Last reported at 2018-Oct-20 01:30 UTC. Time now 2018-Oct-20 01:50 UTC.
Position N 34°02' W 119°20'.

Length 45 m; draft 2.4 m.

Type: Passenger vessel. MMSI: 366396000.

Date/timePositionNaut miles runAvg speedWind from/ knotsBaromVisibWave heightAir tempDewpointWater temp
2018-Oct-20 01:30N 34°02' W 119°20'510.5
2018-Oct-20 01:03N 34°03' W 119°25'110.3
2018-Oct-20 01:00N 34°03' W 119°26'5 9.0
2018-Oct-20 00:30N 34°05' W 119°31'510.1
2018-Oct-20 00:01N 34°05' W 119°37'0 9.0
2018-Oct-20 00:00N 34°05' W 119°37'510.1
2018-Oct-19 23:30N 34°05' W 119°43'6 9.6
2018-Oct-19 22:52N 34°05' W 119°50'2 4.7
2018-Oct-19 22:31N 34°05' W 119°52'4 8.2
2018-Oct-19 22:03N 34°05' W 119°57'0 9.6
2018-Oct-19 22:00N 34°05' W 119°57'5 8.8
2018-Oct-19 21:25N 34°01' W 120°01'1 1.4
2018-Oct-19 20:35N 34°00' W 120°03'0 0.0
2018-Oct-19 20:26N 34°00' W 120°03'0 0.0
2018-Oct-19 19:05N 34°00' W 120°03'0 0.0
2018-Oct-19 18:53N 34°00' W 120°03'0 0.0
2018-Oct-19 18:05N 34°00' W 120°03'0 0.0
2018-Oct-19 17:44N 34°00' W 120°03'0 0.0
2018-Oct-19 16:23N 34°00' W 120°03'0 0.0
2018-Oct-19 15:56N 34°00' W 120°03'0 0.1
2018-Oct-19 15:23N 34°00' W 120°03'0 0.2
2018-Oct-19 14:17N 34°00' W 120°02'0 0.0
2018-Oct-19 13:11N 34°00' W 120°02'0 0.0
2018-Oct-19 11:59N 34°00' W 120°02'0 0.1
2018-Oct-19 10:59N 34°00' W 120°02'0 0.0
2018-Oct-19 10:29N 34°00' W 120°02'0 0.0
2018-Oct-19 09:53N 34°00' W 120°02'0 0.0
2018-Oct-19 09:14N 34°00' W 120°02'0 0.1
2018-Oct-19 08:38N 34°00' W 120°02'0 0.0
2018-Oct-19 08:23N 34°00' W 120°02'0 0.0
2018-Oct-19 07:53N 34°00' W 120°02'0 0.5
2018-Oct-19 07:30N 34°00' W 120°02'4 9.5
2018-Oct-19 07:02N 34°04' W 119°58'0 9.7
2018-Oct-19 06:59N 34°04' W 119°58'4 9.1
2018-Oct-19 06:30N 34°06' W 119°53'4 9.4
2018-Oct-19 06:03N 34°06' W 119°48'1 9.5
2018-Oct-19 06:00N 34°06' W 119°47'5 9.5
2018-Oct-19 05:30N 34°05' W 119°42'4 9.6
2018-Oct-19 05:03N 34°04' W 119°37'1 9.9
2018-Oct-19 05:00N 34°04' W 119°36'3 5.5
2018-Oct-19 04:30N 34°03' W 119°33'0 0.0
2018-Oct-19 03:56N 34°03' W 119°33'0 0.0
2018-Oct-19 03:29N 34°03' W 119°33'0 0.0
2018-Oct-19 03:02N 34°03' W 119°33'0 0.4
2018-Oct-19 02:59N 34°03' W 119°33'0 0.0
2018-Oct-19 02:20N 34°03' W 119°33'0 0.1
2018-Oct-19 02:02N 34°03' W 119°33'0 0.5
2018-Oct-19 01:59N 34°03' W 119°33'0 0.0
2018-Oct-19 01:26N 34°03' W 119°33'0 0.0
2018-Oct-19 01:02N 34°03' W 119°33'0 0.5
2018-Oct-19 00:59N 34°03' W 119°33'0 0.0
2018-Oct-19 00:29N 34°03' W 119°33'0 0.0
2018-Oct-18 23:59N 34°03' W 119°33'0 0.0
2018-Oct-18 23:26N 34°03' W 119°33'0 0.0
2018-Oct-18 22:59N 34°03' W 119°33'0 0.0
2018-Oct-18 22:26N 34°03' W 119°33'0 0.0
2018-Oct-18 22:02N 34°03' W 119°33'0 0.1
2018-Oct-18 21:59N 34°03' W 119°33'0 0.0
2018-Oct-18 21:29N 34°03' W 119°33'0 0.0
2018-Oct-18 21:03N 34°03' W 119°33'0 1.1
2018-Oct-18 21:00N 34°03' W 119°33'5 9.0
2018-Oct-18 20:29N 34°04' W 119°28'4 9.9
2018-Oct-18 20:03N 34°02' W 119°23'0 9.6
2018-Oct-18 20:00N 34°02' W 119°23'1 2.3
2018-Oct-18 19:28N 34°01' W 119°22'0 0.0
2018-Oct-18 19:01N 34°01' W 119°22'0 0.1
2018-Oct-18 18:55N 34°01' W 119°22'0 0.0
2018-Oct-18 18:25N 34°01' W 119°22'0 0.0
2018-Oct-18 18:01N 34°01' W 119°22'0 0.1
2018-Oct-18 17:43N 34°01' W 119°22'0 0.0
2018-Oct-18 17:25N 34°01' W 119°22'0 0.0
2018-Oct-18 16:46N 34°01' W 119°22'0 0.0
2018-Oct-18 16:25N 34°01' W 119°22'0 0.0
2018-Oct-18 16:01N 34°01' W 119°22'0 0.1
2018-Oct-18 15:55N 34°01' W 119°22'0 0.0
2018-Oct-18 15:22N 34°01' W 119°22'0 0.0
2018-Oct-18 15:01N 34°01' W 119°22'0 0.0
2018-Oct-18 14:55N 34°01' W 119°22'2 2.0
2018-Oct-18 14:04N 34°02' W 119°23'0 8.0
2018-Oct-18 14:01N 34°02' W 119°23'4 7.3
2018-Oct-18 13:30N 34°02' W 119°18'3 5.8
2018-Oct-18 13:03N 33°59' W 119°18'0 7.0
2018-Oct-18 13:00N 33°59' W 119°19'3 6.9
2018-Oct-18 12:31N 33°57' W 119°22'3 6.8
2018-Oct-18 12:04N 33°55' W 119°25'0 7.0
2018-Oct-18 12:01N 33°54' W 119°25'4 7.0
2018-Oct-18 11:30N 33°52' W 119°28'3 7.1
2018-Oct-18 11:04N 33°50' W 119°31'0 6.8
2018-Oct-18 11:01N 33°50' W 119°32'3 6.8
2018-Oct-18 10:31N 33°52' W 119°28'4 8.5
2018-Oct-18 10:04N 33°54' W 119°24'0 8.3
2018-Oct-18 10:01N 33°54' W 119°24'4 8.7
2018-Oct-18 09:30N 33°56' W 119°19'4 8.4
2018-Oct-18 09:04N 33°58' W 119°16'0 7.8
2018-Oct-18 09:00N 33°59' W 119°15'4 8.2
2018-Oct-18 08:31N 34°01' W 119°11'3 6.6
2018-Oct-18 08:04N 34°02' W 119°08'0 7.8
2018-Oct-18 08:01N 34°02' W 119°07'4 8.0
2018-Oct-18 07:31N 33°60' W 119°03'3 7.6
2018-Oct-18 07:03N 33°58' W 118°59'0 7.4
2018-Oct-18 07:01N 33°58' W 118°59'4 7.5
2018-Oct-18 06:30N 33°56' W 118°55'3 7.4
2018-Oct-18 06:04N 33°54' W 118°52'0 7.1
2018-Oct-18 06:01N 33°54' W 118°51'4 7.2
2018-Oct-18 05:31N 33°52' W 118°48'3 7.6
2018-Oct-18 05:03N 33°50' W 118°44'0 8.1
2018-Oct-18 05:00N 33°50' W 118°44'4 7.6
2018-Oct-18 04:30N 33°48' W 118°40'3 7.7
2018-Oct-18 04:04N 33°46' W 118°36'0 7.1
2018-Oct-18 04:00N 33°46' W 118°36'4 7.5
2018-Oct-18 03:30N 33°44' W 118°32'3 7.6
2018-Oct-18 03:03N 33°43' W 118°28'0 7.5
2018-Oct-18 03:01N 33°42' W 118°28'4 8.1
2018-Oct-18 02:31N 33°41' W 118°24'4 8.0
2018-Oct-18 02:03N 33°40' W 118°20'0 8.6
2018-Oct-18 02:01N 33°40' W 118°19'4 7.3
2018-Oct-18 01:31N 33°42' W 118°15'2 4.3
2018-Oct-18 01:04N 33°43' W 118°16'0 0.0
2018-Oct-18 00:59N 33°43' W 118°16'0 0.0
2018-Oct-18 00:29N 33°43' W 118°16'0 0.0
2018-Oct-18 00:02N 33°43' W 118°16'0 0.1
2018-Oct-17 23:59N 33°43' W 118°16'0 0.0
2018-Oct-17 23:29N 33°43' W 118°16'0 0.0
2018-Oct-17 23:02N 33°43' W 118°16'0 0.0
2018-Oct-17 22:59N 33°43' W 118°16'0 0.0
2018-Oct-17 22:29N 33°43' W 118°16'0 0.0
2018-Oct-17 22:02N 33°43' W 118°16'0 0.0
2018-Oct-17 21:59N 33°43' W 118°16'0 0.0
2018-Oct-17 21:29N 33°43' W 118°16'0 0.0
2018-Oct-17 21:02N 33°43' W 118°16'0 0.1
2018-Oct-17 20:59N 33°43' W 118°16'0 0.0
2018-Oct-17 20:29N 33°43' W 118°16'0 0.0
2018-Oct-17 20:02N 33°43' W 118°16'0 0.1
2018-Oct-17 19:56N 33°43' W 118°16'0 0.0
2018-Oct-17 19:29N 33°43' W 118°16'0 0.0
2018-Oct-17 18:59N 33°43' W 118°16'0 0.0
2018-Oct-17 18:29N 33°43' W 118°16'0 0.0
2018-Oct-17 18:02N 33°43' W 118°16'0 0.0
2018-Oct-17 17:59N 33°43' W 118°16'0 0.0
2018-Oct-17 17:29N 33°43' W 118°16'0 0.0
2018-Oct-17 17:02N 33°43' W 118°16'0 0.1
2018-Oct-17 16:59N 33°43' W 118°16'0 0.0
2018-Oct-17 16:29N 33°43' W 118°16'0 0.0
2018-Oct-17 16:02N 33°43' W 118°16'0 0.0
2018-Oct-17 15:59N 33°43' W 118°16'0 0.0
2018-Oct-17 15:29N 33°43' W 118°16'0 0.0
2018-Oct-17 15:02N 33°43' W 118°16'0 0.0
2018-Oct-17 14:56N 33°43' W 118°16'0 0.0
2018-Oct-17 14:29N 33°43' W 118°16'0 0.0
2018-Oct-17 13:29N 33°43' W 118°16'0 0.0
2018-Oct-17 13:02N 33°43' W 118°16'0 0.0
2018-Oct-17 12:59N 33°43' W 118°16'0 0.0
2018-Oct-17 12:29N 33°43' W 118°16'0 0.0
2018-Oct-17 12:02N 33°43' W 118°16'0 0.1
2018-Oct-17 11:59N 33°43' W 118°16'0 0.0
2018-Oct-17 11:29N 33°43' W 118°16'0 0.0
2018-Oct-17 11:02N 33°43' W 118°16'0 0.0
2018-Oct-17 10:59N 33°43' W 118°16'0 0.0
2018-Oct-17 10:29N 33°43' W 118°16'0 0.0
2018-Oct-17 10:02N 33°43' W 118°16'0 0.1
2018-Oct-17 09:59N 33°43' W 118°16'0 0.0
2018-Oct-17 09:29N 33°43' W 118°16'0 0.0
2018-Oct-17 09:02N 33°43' W 118°16'0 0.1
2018-Oct-17 08:59N 33°43' W 118°16'0 0.0
2018-Oct-17 08:29N 33°43' W 118°16'0 0.0
2018-Oct-17 08:02N 33°43' W 118°16'0 0.0
2018-Oct-17 07:59N 33°43' W 118°16'0 0.0
2018-Oct-17 07:29N 33°43' W 118°16'0 0.0
2018-Oct-17 07:02N 33°43' W 118°16'0 0.0
2018-Oct-17 06:59N 33°43' W 118°16'0 0.0
2018-Oct-17 06:29N 33°43' W 118°16'0 0.0
2018-Oct-17 06:02N 33°43' W 118°16'0 0.1
2018-Oct-17 05:59N 33°43' W 118°16'0 0.0
2018-Oct-17 05:29N 33°43' W 118°16'0 0.0
2018-Oct-17 05:02N 33°43' W 118°16'0 0.0
2018-Oct-17 04:59N 33°43' W 118°16'0 0.0
2018-Oct-17 04:29N 33°43' W 118°16'0 0.0
2018-Oct-17 04:02N 33°43' W 118°16'0 0.0
2018-Oct-17 03:59N 33°43' W 118°16'0 0.0
2018-Oct-17 03:29N 33°43' W 118°16'0 0.0
2018-Oct-17 03:02N 33°43' W 118°16'0 0.0
2018-Oct-17 02:59N 33°43' W 118°16'0 0.0
2018-Oct-17 02:29N 33°43' W 118°16'0 0.0
2018-Oct-17 02:02N 33°43' W 118°16'0 0.1
2018-Oct-17 01:59N 33°43' W 118°16'0 0.0
2018-Oct-17 01:29N 33°43' W 118°16'0 0.0
2018-Oct-17 01:02N 33°43' W 118°16'0 0.1
2018-Oct-17 00:59N 33°43' W 118°16'0 0.0
2018-Oct-17 00:29N 33°43' W 118°16'0 0.0
2018-Oct-17 00:02N 33°43' W 118°16'0 0.0
2018-Oct-16 23:59N 33°43' W 118°16'0 0.0
2018-Oct-16 23:29N 33°43' W 118°16'0 0.0
2018-Oct-16 23:02N 33°43' W 118°16'0 0.1
2018-Oct-16 22:59N 33°43' W 118°16'0 0.0
2018-Oct-16 22:29N 33°43' W 118°16'0 0.0
2018-Oct-16 21:59N 33°43' W 118°16'0 0.0
2018-Oct-16 21:29N 33°43' W 118°16'0 0.0
2018-Oct-16 21:02N 33°43' W 118°16'0 0.0
2018-Oct-16 20:56N 33°43' W 118°16'0 0.0
2018-Oct-16 20:29N 33°43' W 118°16'0 0.0
2018-Oct-16 20:02N 33°43' W 118°16'0 0.0
2018-Oct-16 19:59N 33°43' W 118°16'0 0.0
2018-Oct-16 19:29N 33°43' W 118°16'0 0.0
2018-Oct-16 19:02N 33°43' W 118°16'0 0.0
2018-Oct-16 18:59N 33°43' W 118°16'0 0.0
2018-Oct-16 18:26N 33°43' W 118°16'0 0.0
2018-Oct-16 17:59N 33°43' W 118°16'0 0.0
2018-Oct-16 17:29N 33°43' W 118°16'0 0.0
2018-Oct-16 17:02N 33°43' W 118°16'0 0.1
2018-Oct-16 16:59N 33°43' W 118°16'0 0.0
2018-Oct-16 16:30N 33°43' W 118°16'0 0.1
2018-Oct-16 16:03N 33°43' W 118°17'0 0.2
2018-Oct-16 16:00N 33°43' W 118°17'3 5.7
2018-Oct-16 15:30N 33°41' W 118°14'4 8.7
2018-Oct-16 15:03N 33°37' W 118°15'0 9.5
2018-Oct-16 15:00N 33°37' W 118°15'4 8.5
2018-Oct-16 14:31N 33°36' W 118°20'4 8.7
2018-Oct-16 14:00N 33°37' W 118°25'4 8.4
2018-Oct-16 13:30N 33°39' W 118°29'4 8.9
2018-Oct-16 13:03N 33°41' W 118°33'0 9.2
2018-Oct-16 13:00N 33°42' W 118°34'4 8.8
2018-Oct-16 12:30N 33°44' W 118°38'4 8.7
2018-Oct-16 12:03N 33°46' W 118°42'0 9.1
2018-Oct-16 12:00N 33°46' W 118°43'5 9.2
2018-Oct-16 11:30N 33°48' W 118°48'4 9.1
2018-Oct-16 11:03N 33°50' W 118°52'0 9.1
2018-Oct-16 11:00N 33°51' W 118°52'5 9.0
2018-Oct-16 10:30N 33°53' W 118°57'4 9.1
2018-Oct-16 10:03N 33°55' W 119°01'0 8.6
2018-Oct-16 10:00N 33°55' W 119°02'5 9.2
2018-Oct-16 09:30N 33°57' W 119°07'4 9.4
2018-Oct-16 09:03N 33°59' W 119°11'0 9.8
2018-Oct-16 09:00N 33°60' W 119°12'5 9.3
2018-Oct-16 08:30N 34°02' W 119°17'4 8.8
2018-Oct-16 08:03N 34°03' W 119°21'1 8.5
2018-Oct-16 07:59N 34°03' W 119°22'4 9.1
2018-Oct-16 07:30N 34°04' W 119°27'4 9.3
2018-Oct-16 07:03N 34°05' W 119°32'0 9.2
2018-Oct-16 07:00N 34°05' W 119°32'5 9.1
2018-Oct-16 06:30N 34°07' W 119°38'4 9.1
2018-Oct-16 06:03N 34°08' W 119°42'0 8.1
2018-Oct-16 06:00N 34°08' W 119°43'5 9.5
2018-Oct-16 05:29N 34°09' W 119°49'4 9.1
2018-Oct-16 05:03N 34°10' W 119°53'1 9.2
2018-Oct-16 05:00N 34°10' W 119°54'5 9.3
2018-Oct-16 04:30N 34°11' W 119°59'4 9.4
2018-Oct-16 04:03N 34°12' W 120°04'0 8.4
2018-Oct-16 04:00N 34°12' W 120°05'4 9.0
2018-Oct-16 03:30N 34°14' W 120°10'5 9.2
2018-Oct-16 02:57N 34°15' W 120°16'5 9.8
2018-Oct-16 02:27N 34°16' W 120°21'4 9.8
2018-Oct-16 02:03N 34°17' W 120°26'1 9.4
2018-Oct-16 01:58N 34°17' W 120°27'5 9.3
2018-Oct-16 01:27N 34°19' W 120°33'4 9.6
2018-Oct-16 01:03N 34°20' W 120°37'1 9.2
2018-Oct-16 01:00N 34°20' W 120°38'5 9.6
2018-Oct-16 00:29N 34°21' W 120°43'4 9.6
2018-Oct-16 00:03N 34°22' W 120°48'0 9.2
2018-Oct-16 00:00N 34°22' W 120°49'6 9.8
2018-Oct-15 23:26N 34°24' W 120°55'4 9.7
2018-Oct-15 23:03N 34°25' W 120°60'1 9.8
2018-Oct-15 22:58N 34°25' W 121°01'4 9.4
2018-Oct-15 22:29N 34°26' W 121°06'4 9.2
2018-Oct-15 22:03N 34°29' W 121°09'0 9.6
2018-Oct-15 22:00N 34°30' W 121°09'5 9.8
2018-Oct-15 21:30N 34°34' W 121°12'510.2
2018-Oct-15 21:03N 34°38' W 121°14'110.5
2018-Oct-15 21:00N 34°39' W 121°14'510.2
2018-Oct-15 20:30N 34°43' W 121°17'4 9.9
2018-Oct-15 20:03N 34°47' W 121°19'1 9.9
2018-Oct-15 19:59N 34°48' W 121°20'5 9.8
2018-Oct-15 19:30N 34°52' W 121°22'4 9.8
2018-Oct-15 19:03N 34°56' W 121°25'0 9.5
2018-Oct-15 19:00N 34°56' W 121°25'5 9.6
2018-Oct-15 18:30N 35°00' W 121°29'4 9.4
2018-Oct-15 18:03N 35°04' W 121°32'0 9.4
2018-Oct-15 18:00N 35°04' W 121°32'5 9.5
2018-Oct-15 17:30N 35°08' W 121°36'4 9.9
2018-Oct-15 17:03N 35°12' W 121°39'1 9.6
2018-Oct-15 17:00N 35°12' W 121°39'510.1
2018-Oct-15 16:30N 35°16' W 121°42'4 9.8
2018-Oct-15 16:03N 35°20' W 121°45'0 9.8
2018-Oct-15 16:00N 35°20' W 121°46'5 9.6
2018-Oct-15 15:30N 35°24' W 121°49'5 9.9
2018-Oct-15 15:03N 35°28' W 121°51'0 9.7
2018-Oct-15 15:00N 35°29' W 121°52'108 9.8
2018-Oct-15 04:00N 36°58' W 123°05'1110.5
2018-Oct-15 02:55N 37°08' W 123°13'910.6
2018-Oct-15 02:03N 37°15' W 123°20'110.5
2018-Oct-15 01:59N 37°16' W 123°20'510.2
2018-Oct-15 01:30N 37°20' W 123°24'4 9.8
2018-Oct-15 01:03N 37°24' W 123°27'0 9.7
2018-Oct-15 01:00N 37°24' W 123°27'510.0
2018-Oct-15 00:30N 37°28' W 123°31'510.2
2018-Oct-15 00:03N 37°32' W 123°34'0 9.7
2018-Oct-15 00:00N 37°32' W 123°34'610.2
2018-Oct-14 23:27N 37°37' W 123°38'410.0
2018-Oct-14 23:03N 37°40' W 123°41'110.4
2018-Oct-14 23:00N 37°41' W 123°41'510.3
2018-Oct-14 22:30N 37°45' W 123°45'4 9.9
2018-Oct-14 22:03N 37°49' W 123°47'1 9.8
2018-Oct-14 21:58N 37°50' W 123°48'4 9.7
2018-Oct-14 21:30N 37°54' W 123°50'4 9.6
2018-Oct-14 21:03N 37°58' W 123°51'0 9.9
2018-Oct-14 21:00N 37°59' W 123°52'5 9.8
2018-Oct-14 20:30N 38°03' W 123°54'4 9.8
2018-Oct-14 20:03N 38°07' W 123°56'0 9.9
2018-Oct-14 20:01N 38°08' W 123°56'6 9.8
2018-Oct-14 19:26N 38°13' W 123°59'4 9.4
2018-Oct-14 19:03N 38°16' W 124°00'0 9.6
2018-Oct-14 19:00N 38°17' W 124°00'5 9.5
2018-Oct-14 18:30N 38°21' W 124°03'4 9.7
2018-Oct-14 18:03N 38°25' W 124°05'0 9.4
2018-Oct-14 18:00N 38°26' W 124°05'5 9.5
2018-Oct-14 17:26N 38°31' W 124°08'4 9.9
2018-Oct-14 17:03N 38°34' W 124°09'0 9.8
2018-Oct-14 17:00N 38°35' W 124°09'5 9.9
2018-Oct-14 16:31N 38°39' W 124°11'12 9.7
2018-Oct-14 15:14N 38°51' W 124°16'13 9.9
2018-Oct-14 13:55N 39°03' W 124°22'287 9.8
2018-Oct-13 08:39N 43°51' W 124°33'5610.2
2018-Oct-13 03:10N 44°46' W 124°25'210.7
2018-Oct-13 03:00N 44°48' W 124°25'2411.9
2018-Oct-13 00:58N 45°12' W 124°19'2 4.3
2018-Oct-13 00:30N 45°14' W 124°19'510.6
2018-Oct-13 00:03N 45°19' W 124°19'110.5
2018-Oct-13 00:00N 45°19' W 124°19'5 9.2
2018-Oct-12 23:30N 45°24' W 124°19'510.5
2018-Oct-12 23:03N 45°29' W 124°17'010.6
2018-Oct-12 23:00N 45°29' W 124°17'510.7
2018-Oct-12 22:31N 45°34' W 124°16'510.6
2018-Oct-12 22:03N 45°39' W 124°16'010.6
2018-Oct-12 22:00N 45°40' W 124°16'510.5
2018-Oct-12 21:30N 45°45' W 124°15'510.7
2018-Oct-12 21:03N 45°50' W 124°14'218.1
2018-Oct-12 20:58N 45°51' W 124°13'4 8.9
2018-Oct-12 20:30N 45°55' W 124°13'510.4
2018-Oct-12 20:03N 45°60' W 124°12'410.3
2018-Oct-12 19:39N 46°04' W 124°11'531.6
2018-Oct-12 19:31N 46°09' W 124°10'1 3.3
2018-Oct-12 19:03N 46°10' W 124°10'110.7
2018-Oct-12 19:00N 46°11' W 124°10'510.4
2018-Oct-12 18:30N 46°15' W 124°06'8 9.6
2018-Oct-12 17:41N 46°12' W 123°55'211.5
2018-Oct-12 17:30N 46°11' W 123°52'1 3.0
2018-Oct-12 17:02N 46°12' W 123°50'0 0.0
2018-Oct-12 16:59N 46°12' W 123°50'0 0.0
2018-Oct-12 16:29N 46°12' W 123°50'0 0.0
2018-Oct-12 16:02N 46°12' W 123°50'0 0.0
2018-Oct-12 15:59N 46°12' W 123°50'0 0.0
2018-Oct-12 15:29N 46°12' W 123°50'0 0.0
2018-Oct-12 15:00N 46°12' W 123°50'2 2.0
2018-Oct-12 14:01N 46°12' W 123°48'0 0.1
2018-Oct-12 13:58N 46°12' W 123°48'0 0.1
2018-Oct-12 13:28N 46°12' W 123°48'0 0.0
2018-Oct-12 12:58N 46°12' W 123°48'0 0.0
2018-Oct-12 12:28N 46°12' W 123°48'0 0.0
2018-Oct-12 12:01N 46°12' W 123°48'0 0.0
2018-Oct-12 11:58N 46°12' W 123°48'0 0.0
2018-Oct-12 11:28N 46°12' W 123°48'0 0.1
2018-Oct-12 11:02N 46°12' W 123°48'0 0.0
2018-Oct-12 10:43N 46°12' W 123°48'0 0.0
2018-Oct-12 10:28N 46°12' W 123°48'0 0.0
2018-Oct-12 10:01N 46°12' W 123°48'0 0.0
2018-Oct-12 09:58N 46°12' W 123°48'0 0.0
2018-Oct-12 09:28N 46°12' W 123°48'0 0.1
2018-Oct-12 08:46N 46°12' W 123°48'0 0.0
2018-Oct-12 08:28N 46°12' W 123°48'0 0.0
2018-Oct-12 08:01N 46°12' W 123°48'0 0.1
2018-Oct-12 07:58N 46°12' W 123°48'0 0.0
2018-Oct-12 07:28N 46°12' W 123°48'0 0.9
2018-Oct-12 07:04N 46°12' W 123°48'3 9.8
2018-Oct-12 06:44N 46°14' W 123°43'311.6
2018-Oct-12 06:30N 46°15' W 123°40'512.3
2018-Oct-12 06:04N 46°16' W 123°32'111.7
2018-Oct-12 06:01N 46°16' W 123°31'510.2
2018-Oct-12 05:31N 46°13' W 123°25'511.2
2018-Oct-12 05:03N 46°09' W 123°21'112.6
2018-Oct-12 05:00N 46°09' W 123°20'612.5
2018-Oct-12 04:31N 46°11' W 123°12'511.2
2018-Oct-12 04:04N 46°10' W 123°05'112.5
2018-Oct-12 04:00N 46°10' W 123°04'611.9
2018-Oct-12 03:30N 46°06' W 122°57'510.5
2018-Oct-12 03:03N 46°02' W 122°53'110.7
2018-Oct-12 03:00N 46°02' W 122°53'510.4
2018-Oct-12 02:30N 45°57' W 122°49'4 9.7
2018-Oct-12 02:03N 45°53' W 122°48'0 9.4
2018-Oct-12 02:01N 45°53' W 122°48'5 9.3
2018-Oct-12 01:30N 45°48' W 122°47'4 9.5
2018-Oct-12 01:03N 45°44' W 122°46'010.0
2018-Oct-12 01:00N 45°43' W 122°46'5 9.3
2018-Oct-12 00:30N 45°39' W 122°46'3 6.7
2018-Oct-12 00:04N 45°36' W 122°47'0 7.2
2018-Oct-12 00:00N 45°35' W 122°46'3 5.1
2018-Oct-11 23:31N 45°34' W 122°43'0 0.0
2018-Oct-11 23:02N 45°34' W 122°43'0 0.0
2018-Oct-11 22:59N 45°34' W 122°43'0 0.0
2018-Oct-11 22:29N 45°34' W 122°43'0 0.0
2018-Oct-11 22:02N 45°34' W 122°43'0 0.0
2018-Oct-11 21:56N 45°34' W 122°43'0 0.0
2018-Oct-11 21:29N 45°34' W 122°43'0 0.0
2018-Oct-11 21:02N 45°34' W 122°43'0 0.0
2018-Oct-11 20:59N 45°34' W 122°43'0 0.0
2018-Oct-11 20:29N 45°34' W 122°43'0 0.0
2018-Oct-11 20:02N 45°34' W 122°43'0 0.0
2018-Oct-11 19:59N 45°34' W 122°43'0 0.0
2018-Oct-11 19:29N 45°34' W 122°43'0 0.0
2018-Oct-11 19:02N 45°34' W 122°43'0 0.0
2018-Oct-11 18:56N 45°34' W 122°43'0 0.0
2018-Oct-11 18:29N 45°34' W 122°43'0 0.0
2018-Oct-11 17:59N 45°34' W 122°43'0 0.0
2018-Oct-11 17:26N 45°34' W 122°43'0 0.0
2018-Oct-11 16:32N 45°34' W 122°43'0 0.0
2018-Oct-11 16:29N 45°34' W 122°43'0 0.0
2018-Oct-11 16:02N 45°34' W 122°43'0 0.0
2018-Oct-11 15:56N 45°34' W 122°43'0 0.0
2018-Oct-11 15:29N 45°34' W 122°43'0 0.0
2018-Oct-11 14:59N 45°34' W 122°43'0 0.0
2018-Oct-11 14:26N 45°34' W 122°43'0 0.0
2018-Oct-11 13:59N 45°34' W 122°43'0 0.0
2018-Oct-11 13:29N 45°34' W 122°43'0 0.0
2018-Oct-11 12:59N 45°34' W 122°43'0 0.0
2018-Oct-11 12:08N 45°34' W 122°43'0 0.0
2018-Oct-11 12:02N 45°34' W 122°43'0 0.0
2018-Oct-11 11:59N 45°34' W 122°43'0 0.0
2018-Oct-11 11:29N 45°34' W 122°43'0 0.0
2018-Oct-11 11:02N 45°34' W 122°43'0 0.0
2018-Oct-11 10:59N 45°34' W 122°43'0 0.0
2018-Oct-11 10:29N 45°34' W 122°43'0 0.0
2018-Oct-11 10:02N 45°34' W 122°43'0 0.0
2018-Oct-11 09:59N 45°34' W 122°43'0 0.0
2018-Oct-11 09:29N 45°34' W 122°43'0 0.0
2018-Oct-11 08:59N 45°34' W 122°43'0 0.0
2018-Oct-11 08:29N 45°34' W 122°43'0 0.0
2018-Oct-11 08:02N 45°34' W 122°43'0 0.0
2018-Oct-11 07:59N 45°34' W 122°43'0 0.0
2018-Oct-11 07:27N 45°34' W 122°43'0 0.0
2018-Oct-11 06:59N 45°34' W 122°43'0 0.0
2018-Oct-11 06:29N 45°34' W 122°43'0 0.0
2018-Oct-11 05:59N 45°34' W 122°43'0 0.0
2018-Oct-11 05:08N 45°34' W 122°43'0 0.0
2018-Oct-11 04:59N 45°34' W 122°43'0 0.0
2018-Oct-11 04:14N 45°34' W 122°43'0 0.0
2018-Oct-11 04:03N 45°34' W 122°43'0 0.0
2018-Oct-11 03:56N 45°34' W 122°43'0 0.0
2018-Oct-11 03:29N 45°34' W 122°43'0 0.0
2018-Oct-11 03:02N 45°34' W 122°43'0 0.0
2018-Oct-11 02:59N 45°34' W 122°43'0 0.0
2018-Oct-11 02:14N 45°34' W 122°43'0 0.0
2018-Oct-11 02:02N 45°34' W 122°43'0 0.0
2018-Oct-11 01:59N 45°34' W 122°43'0 0.0
2018-Oct-11 01:29N 45°34' W 122°43'0 0.0
2018-Oct-11 01:02N 45°34' W 122°43'0 0.0
2018-Oct-11 00:59N 45°34' W 122°43'0 0.0
2018-Oct-11 00:29N 45°34' W 122°43'0 0.0
2018-Oct-11 00:02N 45°34' W 122°43'0 0.0
2018-Oct-10 23:59N 45°34' W 122°43'0 0.0
2018-Oct-10 23:26N 45°34' W 122°43'0 0.0
2018-Oct-10 23:02N 45°34' W 122°43'0 0.0
2018-Oct-10 22:56N 45°34' W 122°43'0 0.0
2018-Oct-10 22:29N 45°34' W 122°43'0 0.0
2018-Oct-10 21:56N 45°34' W 122°43'0 0.0
2018-Oct-10 21:26N 45°34' W 122°43'0 0.0
2018-Oct-10 20:53N 45°34' W 122°43'0 0.0
2018-Oct-10 20:26N 45°34' W 122°43'0 0.0
2018-Oct-10 20:01N 45°34' W 122°43'0 0.0
2018-Oct-10 19:59N 45°34' W 122°43'0 0.0
2018-Oct-10 19:26N 45°34' W 122°43'0 0.0
2018-Oct-10 19:02N 45°34' W 122°43'0 0.0
2018-Oct-10 18:58N 45°34' W 122°43'0 0.0
2018-Oct-10 18:29N 45°34' W 122°43'0 0.0
2018-Oct-10 18:02N 45°34' W 122°43'0 0.0
2018-Oct-10 17:59N 45°34' W 122°43'0 0.0
2018-Oct-10 17:25N 45°34' W 122°43'0 0.0
2018-Oct-10 17:02N 45°34' W 122°43'0 0.0
2018-Oct-10 16:37N 45°34' W 122°43'0 0.0
2018-Oct-10 16:28N 45°34' W 122°43'0 0.0
2018-Oct-10 15:55N 45°34' W 122°43'0 0.0
2018-Oct-10 15:28N 45°34' W 122°43'0 0.0
2018-Oct-10 15:01N 45°34' W 122°43'0 0.0
2018-Oct-10 14:59N 45°34' W 122°43'0 0.0
2018-Oct-10 14:01N 45°34' W 122°43'0 0.0
2018-Oct-10 13:58N 45°34' W 122°43'0 0.0
2018-Oct-10 13:28N 45°34' W 122°43'0 0.0
2018-Oct-10 12:59N 45°34' W 122°43'0 0.0
2018-Oct-10 12:25N 45°34' W 122°43'0 0.0
2018-Oct-10 12:02N 45°34' W 122°43'0 0.0
2018-Oct-10 11:58N 45°34' W 122°43'0 0.0
2018-Oct-10 11:28N 45°34' W 122°43'0 0.0
2018-Oct-10 11:01N 45°34' W 122°43'0 0.0
2018-Oct-10 10:58N 45°34' W 122°43'0 0.0
2018-Oct-10 10:28N 45°34' W 122°43'0 0.0
2018-Oct-10 10:01N 45°34' W 122°43'0 0.0
2018-Oct-10 09:58N 45°34' W 122°43'0 0.0
2018-Oct-10 09:28N 45°34' W 122°43'0 0.0
2018-Oct-10 09:01N 45°34' W 122°43'0 0.0
2018-Oct-10 08:58N 45°34' W 122°43'0 0.0
2018-Oct-10 08:28N 45°34' W 122°43'0 0.0
2018-Oct-10 08:01N 45°34' W 122°43'0 0.0
2018-Oct-10 07:58N 45°34' W 122°43'0 0.0
2018-Oct-10 07:28N 45°34' W 122°43'0 0.0
2018-Oct-10 06:58N 45°34' W 122°43'0 0.0
2018-Oct-10 06:28N 45°34' W 122°43'0 0.0
2018-Oct-10 06:01N 45°34' W 122°43'0 0.0
2018-Oct-10 05:58N 45°34' W 122°43'0 0.0
2018-Oct-10 05:28N 45°34' W 122°43'0 0.0
2018-Oct-10 05:01N 45°34' W 122°43'0 0.0
2018-Oct-10 04:58N 45°34' W 122°43'0 0.0
2018-Oct-10 04:28N 45°34' W 122°43'0 0.0
2018-Oct-10 04:01N 45°34' W 122°43'0 0.0
2018-Oct-10 03:59N 45°34' W 122°43'0 0.0
2018-Oct-10 03:22N 45°34' W 122°43'0 0.0
2018-Oct-10 03:01N 45°34' W 122°43'0 0.0
2018-Oct-10 02:58N 45°34' W 122°43'0 0.0
2018-Oct-10 02:28N 45°34' W 122°43'0 0.0
2018-Oct-10 01:58N 45°34' W 122°43'  

Dump ship's entire track history